createdAt,value
2024-05-09T00:00:40.234Z,11.67
2024-05-09T00:03:09.830Z,12.60
2024-05-09T00:05:38.398Z,15.93
2024-05-09T00:08:06.437Z,10.93
2024-05-09T00:10:37.209Z,11.63
2024-05-09T00:13:07.167Z,11.27
2024-05-09T00:15:35.213Z,11.90
2024-05-09T00:18:03.308Z,12.00
2024-05-09T00:20:37.827Z,11.80
2024-05-09T00:23:08.840Z,10.93
2024-05-09T00:25:36.763Z,12.07
2024-05-09T00:28:04.009Z,12.47
2024-05-09T00:30:34.792Z,12.13
2024-05-09T00:33:05.392Z,10.87
2024-05-09T00:35:33.496Z,12.37
2024-05-09T00:38:00.856Z,14.93
2024-05-09T00:40:38.735Z,13.30
2024-05-09T00:43:08.584Z,11.83
2024-05-09T00:45:35.834Z,13.30
2024-05-09T00:48:06.741Z,11.93
2024-05-09T00:50:37.499Z,11.70
2024-05-09T00:53:06.863Z,13.47
2024-05-09T00:55:35.961Z,12.83
2024-05-09T00:58:04.524Z,14.67
2024-05-09T01:00:38.390Z,12.00
2024-05-09T01:03:08.836Z,11.50
2024-05-09T01:05:39.314Z,12.60
2024-05-09T01:08:07.363Z,13.77
2024-05-09T01:10:35.895Z,13.10
2024-05-09T01:13:04.411Z,12.23
2024-05-09T01:15:31.463Z,12.47
2024-05-09T01:18:00.984Z,11.80
2024-05-09T01:20:37.484Z,13.67
2024-05-09T01:23:09.910Z,11.97
2024-05-09T01:25:37.292Z,12.13
2024-05-09T01:28:04.560Z,14.43
2024-05-09T01:30:35.269Z,14.00
2024-05-09T01:33:06.255Z,12.90
2024-05-09T01:35:34.852Z,13.63
2024-05-09T01:38:01.950Z,12.73
2024-05-09T01:40:36.747Z,16.00
2024-05-09T01:43:06.628Z,13.90
2024-05-09T01:45:33.668Z,12.93
2024-05-09T01:48:01.029Z,11.37
2024-05-09T01:50:37.727Z,13.17
2024-05-09T01:53:09.030Z,12.40
2024-05-09T01:55:36.074Z,12.83
2024-05-09T01:58:03.090Z,14.30
2024-05-09T02:00:38.404Z,13.43
2024-05-09T02:03:15.563Z,12.50
2024-05-09T02:05:45.768Z,13.20
2024-05-09T02:08:18.276Z,13.63
2024-05-09T02:10:46.892Z,12.80
2024-05-09T02:13:14.905Z,12.80
2024-05-09T02:15:42.107Z,12.37
2024-05-09T02:18:10.262Z,12.90
2024-05-09T02:20:41.719Z,14.23
2024-05-09T02:23:09.472Z,11.60
2024-05-09T02:25:36.626Z,12.47
2024-05-09T02:28:03.669Z,11.63
2024-05-09T02:30:38.784Z,14.23
2024-05-09T02:33:10.073Z,12.30
2024-05-09T02:35:38.805Z,13.83
2024-05-09T02:38:06.596Z,17.33
2024-05-09T02:40:37.459Z,12.17
2024-05-09T02:43:12.211Z,12.07
2024-05-09T02:45:40.589Z,13.93
2024-05-09T02:48:11.200Z,13.27
2024-05-09T02:50:40.651Z,14.20
2024-05-09T02:53:09.491Z,13.47
2024-05-09T02:55:40.587Z,14.40
2024-05-09T02:58:07.858Z,14.17
2024-05-09T03:00:39.425Z,15.07
2024-05-09T03:03:10.775Z,16.57
2024-05-09T03:05:40.160Z,15.40
2024-05-09T03:08:07.766Z,14.73
2024-05-09T03:10:36.920Z,18.23
2024-05-09T03:13:10.047Z,13.53
2024-05-09T03:15:37.219Z,11.90
2024-05-09T03:18:05.429Z,13.07
2024-05-09T03:20:35.162Z,13.47
2024-05-09T03:23:05.184Z,13.73
2024-05-09T03:25:32.539Z,17.67
2024-05-09T03:27:59.646Z,14.00
2024-05-09T03:30:38.488Z,15.50
2024-05-09T03:33:20.023Z,14.07
2024-05-09T03:35:49.042Z,15.13
2024-05-09T03:38:16.665Z,14.57
2024-05-09T03:40:48.599Z,12.40
2024-05-09T03:43:16.913Z,13.87
2024-05-09T03:45:44.376Z,14.30
2024-05-09T03:48:11.692Z,13.30
2024-05-09T03:50:39.012Z,16.77
2024-05-09T03:53:06.394Z,14.70
2024-05-09T03:55:33.492Z,14.83
2024-05-09T03:58:00.505Z,16.13
2024-05-09T04:00:35.516Z,12.63
2024-05-09T04:03:08.244Z,14.50
2024-05-09T04:05:39.500Z,14.37
2024-05-09T04:08:07.083Z,16.37
2024-05-09T04:10:35.116Z,13.13
2024-05-09T04:13:03.709Z,13.13
2024-05-09T04:15:31.193Z,15.77
2024-05-09T04:17:58.397Z,15.63
2024-05-09T04:20:35.962Z,14.03
2024-05-09T04:23:14.566Z,14.33
2024-05-09T04:25:43.429Z,13.33
2024-05-09T04:28:10.463Z,14.23
2024-05-09T04:30:40.293Z,15.93
2024-05-09T04:33:11.853Z,16.30
2024-05-09T04:35:42.297Z,14.93
2024-05-09T04:38:09.827Z,14.07
2024-05-09T04:40:37.687Z,17.47
2024-05-09T04:43:06.208Z,13.93
2024-05-09T04:45:33.526Z,18.03
2024-05-09T04:48:01.043Z,13.20
2024-05-09T04:50:35.985Z,15.67
2024-05-09T04:53:07.000Z,14.43
2024-05-09T04:55:35.273Z,13.13
2024-05-09T04:58:02.216Z,12.50
2024-05-09T05:00:35.826Z,13.87
2024-05-09T05:03:10.766Z,14.50
2024-05-09T05:05:40.881Z,15.53
2024-05-09T05:08:12.379Z,14.30
2024-05-09T05:10:39.587Z,14.23
2024-05-09T05:13:17.679Z,15.20
2024-05-09T05:15:49.331Z,13.03
2024-05-09T05:18:16.864Z,12.97
2024-05-09T05:20:44.454Z,16.10
2024-05-09T05:23:14.137Z,12.97
2024-05-09T05:25:45.021Z,13.57
2024-05-09T05:28:11.937Z,15.90
2024-05-09T05:30:40.656Z,13.87
2024-05-09T05:33:10.938Z,13.23
2024-05-09T05:35:38.029Z,13.80
2024-05-09T05:38:06.593Z,13.40
2024-05-09T05:40:37.102Z,13.40
2024-05-09T05:43:06.480Z,13.43
2024-05-09T05:45:33.377Z,13.63
2024-05-09T05:48:02.592Z,14.33
2024-05-09T05:50:35.533Z,13.63
2024-05-09T05:53:06.460Z,13.80
2024-05-09T05:55:33.642Z,14.73
2024-05-09T05:58:01.998Z,15.87
2024-05-09T06:00:35.014Z,13.77
2024-05-09T06:03:06.050Z,14.77
2024-05-09T06:05:33.582Z,12.63
2024-05-09T06:08:00.934Z,13.37
2024-05-09T06:10:37.242Z,14.63
2024-05-09T06:13:06.971Z,14.57
2024-05-09T06:15:34.096Z,22.50
2024-05-09T06:18:01.458Z,27.67
2024-05-09T06:20:35.550Z,25.83
2024-05-09T06:23:08.360Z,25.20
2024-05-09T06:25:36.881Z,29.53
2024-05-09T06:28:04.696Z,31.63
2024-05-09T06:30:40.295Z,31.63
2024-05-09T06:33:11.326Z,32.00
2024-05-09T06:35:40.531Z,31.93
2024-05-09T06:38:11.055Z,30.73
2024-05-09T06:40:41.887Z,34.43
2024-05-09T06:43:18.739Z,32.03
2024-05-09T06:45:48.458Z,32.23
2024-05-09T06:48:18.015Z,32.30
2024-05-09T06:50:45.384Z,30.53
2024-05-09T06:53:14.610Z,33.53
2024-05-09T06:55:41.791Z,29.10
2024-05-09T06:58:09.653Z,28.27
2024-05-09T07:00:39.888Z,30.13
2024-05-09T07:03:14.165Z,31.10
2024-05-09T07:05:43.699Z,29.27
2024-05-09T07:08:10.948Z,26.00
2024-05-09T07:10:38.304Z,26.90
2024-05-09T07:13:12.898Z,29.50
2024-05-09T07:15:40.865Z,25.27
2024-05-09T07:18:18.747Z,32.03
2024-05-09T07:20:48.752Z,25.37
2024-05-09T07:23:16.969Z,30.80
2024-05-09T07:25:44.082Z,27.90
2024-05-09T07:28:18.240Z,26.73
2024-05-09T07:30:45.519Z,33.90
2024-05-09T07:33:21.043Z,36.97
2024-05-09T07:35:49.591Z,28.43
2024-05-09T07:38:16.639Z,32.90
2024-05-09T07:40:43.645Z,28.30
2024-05-09T07:43:14.621Z,36.83
2024-05-09T07:45:50.798Z,30.83
2024-05-09T07:53:39.147Z,34.50
2024-05-09T07:56:09.997Z,33.43
2024-05-09T07:58:37.504Z,32.90
2024-05-09T08:01:05.096Z,34.40
2024-05-09T08:03:32.419Z,30.27
2024-05-09T08:05:59.502Z,34.27
2024-05-09T08:08:26.488Z,32.43
2024-05-09T08:10:53.462Z,32.53
2024-05-09T08:13:20.618Z,32.23
2024-05-09T08:15:47.665Z,29.93
2024-05-09T08:18:14.771Z,31.77
2024-05-09T08:20:42.306Z,24.40
2024-05-09T08:23:10.870Z,32.17
2024-05-09T08:25:38.752Z,29.60
2024-05-09T08:28:06.324Z,31.00
2024-05-09T08:30:37.086Z,29.13
2024-05-09T08:33:06.843Z,28.63
2024-05-09T08:35:35.141Z,29.30
2024-05-09T08:38:07.464Z,26.73
2024-05-09T08:40:36.792Z,30.23
2024-05-09T08:43:11.374Z,24.20
2024-05-09T08:45:43.566Z,25.20
2024-05-09T08:48:13.331Z,29.03
2024-05-09T08:50:41.448Z,26.10
2024-05-09T08:53:09.121Z,23.70
2024-05-09T08:55:40.421Z,24.60
2024-05-09T08:58:13.602Z,21.80
2024-05-09T09:00:43.397Z,19.70
2024-05-09T09:03:19.615Z,19.33
2024-05-09T09:06:19.911Z,18.17
2024-05-09T09:08:54.247Z,19.00
2024-05-09T09:11:21.166Z,15.53
2024-05-09T09:13:48.411Z,16.33
2024-05-09T09:16:16.379Z,13.97
2024-05-09T09:18:46.906Z,14.83
2024-05-09T09:21:13.957Z,17.50
2024-05-09T09:23:40.832Z,19.37
2024-05-09T09:26:07.714Z,18.60
2024-05-09T09:28:37.644Z,13.70
2024-05-09T09:31:05.286Z,17.43
2024-05-09T09:33:32.981Z,15.33
2024-05-09T09:36:04.237Z,15.97
2024-05-09T09:38:32.516Z,19.80
2024-05-09T09:41:01.518Z,17.27
2024-05-09T09:43:29.379Z,16.40
2024-05-09T09:45:59.947Z,15.80
2024-05-09T09:48:27.721Z,16.60
2024-05-09T09:50:55.375Z,18.03
2024-05-09T09:53:23.423Z,21.63
2024-05-09T09:55:52.120Z,17.17
2024-05-09T09:58:19.649Z,17.70
2024-05-09T10:00:47.173Z,21.37
2024-05-09T10:03:14.321Z,17.63
2024-05-09T10:05:45.034Z,15.33
2024-05-09T10:08:15.965Z,15.43
2024-05-09T10:10:47.137Z,15.70
2024-05-09T10:13:14.509Z,16.33
2024-05-09T10:15:51.736Z,15.43
2024-05-09T10:18:28.528Z,15.60
2024-05-09T10:20:57.950Z,15.57
2024-05-09T10:23:29.331Z,16.80
2024-05-09T10:26:04.657Z,12.90
2024-05-09T10:28:36.934Z,13.13
2024-05-09T10:31:08.849Z,13.43
2024-05-09T10:34:02.675Z,14.77
2024-05-09T10:36:29.823Z,18.43
2024-05-09T10:38:56.699Z,17.10
2024-05-09T10:41:24.225Z,15.50
2024-05-09T10:43:52.081Z,13.77
2024-05-09T10:46:19.525Z,16.13
2024-05-09T10:48:47.728Z,13.43
2024-05-09T10:51:15.183Z,12.40
2024-05-09T10:53:51.827Z,14.67
2024-05-09T10:56:18.784Z,13.40
2024-05-09T10:58:45.683Z,13.03
2024-05-09T11:01:13.472Z,19.00
2024-05-09T11:03:41.033Z,14.30
2024-05-09T11:06:09.798Z,13.63
2024-05-09T11:08:56.072Z,15.97
2024-05-09T11:11:23.137Z,12.07
2024-05-09T11:13:50.091Z,12.63
2024-05-09T11:16:21.801Z,10.83
2024-05-09T11:18:57.213Z,13.53
2024-05-09T11:21:25.069Z,14.10
2024-05-09T11:23:52.800Z,13.00
2024-05-09T11:26:21.497Z,13.40
2024-05-09T11:28:50.443Z,11.90
2024-05-09T11:31:17.882Z,14.87
2024-05-09T11:33:48.191Z,14.77
2024-05-09T11:36:15.698Z,12.83
2024-05-09T11:38:43.246Z,17.73
2024-05-09T11:41:17.257Z,17.70
2024-05-09T11:43:44.449Z,14.23
2024-05-09T11:46:11.632Z,12.63
2024-05-09T11:48:40.193Z,12.30
2024-05-09T11:51:07.313Z,16.43
2024-05-09T11:53:34.208Z,12.60
2024-05-09T11:56:01.147Z,12.13
2024-05-09T11:58:29.857Z,10.90
2024-05-09T12:00:57.251Z,12.73
2024-05-09T12:03:24.418Z,11.27
2024-05-09T12:05:51.628Z,11.53
2024-05-09T12:08:19.028Z,11.60
2024-05-09T12:10:46.613Z,16.80
2024-05-09T12:13:13.838Z,12.63
2024-05-09T12:15:40.892Z,10.93
2024-05-09T12:18:08.493Z,11.20
2024-05-09T12:20:38.638Z,11.43
2024-05-09T12:23:08.875Z,13.77
2024-05-09T12:25:37.831Z,13.73
2024-05-09T12:28:05.417Z,11.33
2024-05-09T12:30:37.547Z,10.30
2024-05-09T12:33:12.580Z,9.93
2024-05-09T12:35:41.755Z,12.40
2024-05-09T12:38:10.089Z,10.33
2024-05-09T12:40:38.807Z,9.00
2024-05-09T12:43:08.630Z,9.40
2024-05-09T12:45:36.981Z,9.67
2024-05-09T12:48:07.450Z,10.20
2024-05-09T12:50:35.198Z,11.53
2024-05-09T12:53:03.740Z,10.80
2024-05-09T12:55:40.168Z,12.73
2024-05-09T12:58:14.873Z,9.73
2024-05-09T13:00:41.931Z,11.07
2024-05-09T13:03:09.018Z,10.73
2024-05-09T13:05:36.081Z,10.60
2024-05-09T13:08:03.870Z,10.17
2024-05-09T13:10:32.876Z,10.57
2024-05-09T13:13:01.491Z,9.77
2024-05-09T13:15:30.155Z,10.47
2024-05-09T13:18:03.052Z,8.17
2024-05-09T13:20:34.100Z,7.50
2024-05-09T13:23:05.162Z,9.73
2024-05-09T13:25:34.438Z,9.20
2024-05-09T13:28:01.936Z,12.07
2024-05-09T13:30:37.726Z,13.47
2024-05-09T13:33:08.743Z,11.73
2024-05-09T13:35:36.299Z,9.70
2024-05-09T13:38:04.269Z,9.67
2024-05-09T13:40:34.683Z,9.33
2024-05-09T13:43:04.839Z,7.80
2024-05-09T13:45:32.657Z,7.70
2024-05-09T13:48:00.121Z,7.23
2024-05-09T13:50:33.365Z,6.70
2024-05-09T13:53:03.354Z,6.93
2024-05-09T13:55:30.383Z,8.47
2024-05-09T13:57:57.380Z,7.37
2024-05-09T14:02:54.425Z,7.63
2024-05-09T14:05:21.592Z,8.27
2024-05-09T14:07:48.845Z,10.00
2024-05-09T14:10:22.552Z,9.33
2024-05-09T14:12:53.014Z,10.23
2024-05-09T14:15:19.941Z,8.17
2024-05-09T14:17:47.029Z,7.43
2024-05-09T14:20:19.454Z,9.17
2024-05-09T14:22:54.722Z,10.00
2024-05-09T14:25:24.092Z,9.83
2024-05-09T14:27:51.169Z,10.00
2024-05-09T14:30:26.188Z,8.87
2024-05-09T14:33:01.286Z,10.13
2024-05-09T14:35:28.447Z,9.60
2024-05-09T14:37:55.428Z,9.53
2024-05-09T14:40:35.565Z,8.63
2024-05-09T14:43:07.812Z,9.63
2024-05-09T14:45:34.932Z,8.87
2024-05-09T14:48:02.858Z,9.30
2024-05-09T14:50:35.950Z,9.50
2024-05-09T14:53:06.925Z,9.13
2024-05-09T14:55:37.348Z,7.93
2024-05-09T14:58:09.338Z,9.30
2024-05-09T15:00:41.684Z,10.53
2024-05-09T15:03:11.983Z,7.50
2024-05-09T15:05:39.205Z,7.27
2024-05-09T15:08:07.934Z,9.80
2024-05-09T15:10:36.643Z,6.77
2024-05-09T15:13:04.933Z,12.83
2024-05-09T15:15:32.148Z,8.70
2024-05-09T15:17:59.839Z,10.30
2024-05-09T15:20:33.971Z,8.20
2024-05-09T15:23:04.552Z,8.93
2024-05-09T15:25:31.683Z,8.20
2024-05-09T15:27:58.736Z,9.10
2024-05-09T15:30:31.925Z,11.60
2024-05-09T15:33:03.262Z,9.97
2024-05-09T15:35:30.522Z,9.37
2024-05-09T15:37:57.571Z,7.17
2024-05-09T15:40:35.536Z,8.10
2024-05-09T15:43:07.654Z,8.13
2024-05-09T15:45:35.314Z,8.90
2024-05-09T15:48:03.443Z,8.60
2024-05-09T15:50:37.621Z,7.50
2024-05-09T15:53:09.129Z,7.23
2024-05-09T15:55:36.928Z,9.33
2024-05-09T15:58:04.941Z,7.83
2024-05-09T16:00:38.301Z,8.07
2024-05-09T16:03:09.970Z,8.30
2024-05-09T16:05:38.060Z,7.27
2024-05-09T16:08:06.498Z,11.03
2024-05-09T16:10:34.791Z,10.17
2024-05-09T16:13:03.209Z,8.13
2024-05-09T16:15:30.958Z,8.83
2024-05-09T16:17:58.147Z,7.93
2024-05-09T16:20:34.688Z,8.47
2024-05-09T16:23:06.970Z,8.80
2024-05-09T16:25:33.959Z,8.60
2024-05-09T16:28:01.601Z,10.57
2024-05-09T16:30:34.544Z,10.77
2024-05-09T16:33:04.589Z,6.57
2024-05-09T16:35:32.414Z,7.57
2024-05-09T16:38:01.565Z,7.67
2024-05-09T16:40:36.361Z,8.20
2024-05-09T16:43:07.301Z,8.43
2024-05-09T16:45:34.768Z,8.20
2024-05-09T16:48:02.361Z,9.20
2024-05-09T16:50:33.935Z,8.80
2024-05-09T16:53:06.743Z,7.00
2024-05-09T16:55:34.756Z,10.17
2024-05-09T16:58:02.862Z,12.53
2024-05-09T17:00:39.346Z,6.80
2024-05-09T17:03:11.433Z,9.50
2024-05-09T17:05:39.724Z,7.03
2024-05-09T17:08:08.047Z,6.57
2024-05-09T17:10:36.347Z,7.87
2024-05-09T17:13:05.280Z,6.13
2024-05-09T17:15:33.858Z,6.40
2024-05-09T17:18:01.982Z,7.30
2024-05-09T17:20:34.009Z,6.67
2024-05-09T17:23:04.429Z,7.27
2024-05-09T17:25:31.939Z,10.50
2024-05-09T17:28:06.119Z,6.63
2024-05-09T17:30:36.961Z,6.73
2024-05-09T17:33:07.523Z,6.40
2024-05-09T17:35:36.166Z,7.93
2024-05-09T17:38:03.975Z,9.50
2024-05-09T17:40:34.856Z,7.57
2024-05-09T17:43:05.140Z,5.73
2024-05-09T17:45:32.992Z,7.20
2024-05-09T17:48:00.804Z,8.43
2024-05-09T17:50:34.982Z,9.97
2024-05-09T17:53:04.725Z,7.30
2024-05-09T17:55:31.983Z,9.63
2024-05-09T17:57:59.225Z,12.10
2024-05-09T18:02:56.435Z,8.30
2024-05-09T18:05:23.840Z,10.30
2024-05-09T18:07:51.015Z,8.53
2024-05-09T18:10:25.417Z,8.77
2024-05-09T18:12:56.937Z,8.00
2024-05-09T18:15:23.859Z,8.70
2024-05-09T18:17:52.162Z,9.40
2024-05-09T18:20:28.704Z,8.80
2024-05-09T18:23:05.485Z,12.27
2024-05-09T18:25:32.395Z,8.37
2024-05-09T18:28:01.782Z,8.00
2024-05-09T18:30:34.408Z,8.47
2024-05-09T18:33:04.719Z,9.67
2024-05-09T18:35:33.122Z,11.07
2024-05-09T18:38:00.398Z,12.03
2024-05-09T18:40:32.995Z,10.80
2024-05-09T18:43:04.196Z,12.00
2024-05-09T18:45:31.439Z,9.40
2024-05-09T18:47:58.647Z,8.87
2024-05-09T18:50:32.620Z,13.47
2024-05-09T18:53:06.266Z,7.50
2024-05-09T18:55:33.454Z,10.63
2024-05-09T18:58:00.606Z,8.73
2024-05-09T19:00:34.461Z,8.77
2024-05-09T19:03:06.390Z,10.37
2024-05-09T19:05:36.046Z,9.57
2024-05-09T19:08:03.590Z,8.30
2024-05-09T19:10:34.445Z,9.40
2024-05-09T19:13:06.714Z,9.43
2024-05-09T19:15:38.559Z,8.27
2024-05-09T19:18:06.589Z,7.97
2024-05-09T19:20:35.584Z,7.60
2024-05-09T19:23:04.153Z,8.67
2024-05-09T19:25:31.265Z,6.43
2024-05-09T19:27:58.414Z,7.73
2024-05-09T19:30:34.642Z,6.60
2024-05-09T19:33:07.107Z,5.23
2024-05-09T19:35:34.175Z,8.60
2024-05-09T19:38:01.310Z,5.30
2024-05-09T19:40:31.838Z,5.83
2024-05-09T19:43:01.776Z,6.03
2024-05-09T19:45:29.383Z,6.47
2024-05-09T19:47:56.589Z,6.23
2024-05-09T19:50:32.211Z,6.60
2024-05-09T19:53:07.183Z,5.60
2024-05-09T19:55:34.603Z,6.57
2024-05-09T19:58:07.098Z,5.83
2024-05-09T20:00:37.644Z,6.03
2024-05-09T20:03:07.212Z,5.83
2024-05-09T20:05:34.495Z,7.43
2024-05-09T20:08:01.772Z,6.13
2024-05-09T20:10:32.666Z,5.90
2024-05-09T20:13:02.334Z,6.50
2024-05-09T20:15:29.824Z,6.53
2024-05-09T20:17:57.133Z,5.17
2024-05-09T20:20:33.014Z,6.40
2024-05-09T20:23:05.878Z,5.70
2024-05-09T20:25:32.822Z,6.87
2024-05-09T20:27:59.778Z,5.60
2024-05-09T20:30:32.041Z,5.13
2024-05-09T20:33:02.895Z,5.90
2024-05-09T20:35:34.696Z,5.57
2024-05-09T20:38:03.244Z,8.20
2024-05-09T20:40:34.789Z,7.83
2024-05-09T20:43:05.583Z,12.37
2024-05-09T20:45:33.159Z,5.10
2024-05-09T20:48:00.594Z,5.30
2024-05-09T20:50:36.408Z,5.83
2024-05-09T20:53:08.921Z,9.37
2024-05-09T20:55:36.011Z,6.23
2024-05-09T20:58:03.070Z,5.83
2024-05-09T21:00:38.704Z,9.30
2024-05-09T21:03:09.447Z,6.73
2024-05-09T21:05:36.713Z,5.07
2024-05-09T21:08:04.217Z,5.53
2024-05-09T21:10:33.372Z,7.40
2024-05-09T21:13:02.890Z,7.13
2024-05-09T21:15:30.812Z,8.10
2024-05-09T21:17:58.162Z,7.50
2024-05-09T21:20:30.980Z,9.00
2024-05-09T21:22:59.506Z,6.03
2024-05-09T21:25:26.513Z,9.13
2024-05-09T21:27:53.694Z,7.43
2024-05-09T21:32:51.268Z,7.50
2024-05-09T21:35:18.695Z,6.00
2024-05-09T21:37:45.656Z,7.30
2024-05-09T21:40:17.019Z,11.33
2024-05-09T21:42:52.123Z,7.07
2024-05-09T21:45:19.021Z,12.93
2024-05-09T21:47:45.980Z,10.57
2024-05-09T21:50:22.168Z,5.50
2024-05-09T21:52:50.545Z,5.83
2024-05-09T21:55:17.530Z,6.60
2024-05-09T21:57:44.489Z,5.37
2024-05-09T22:00:28.001Z,5.70
2024-05-09T22:03:02.270Z,5.47
2024-05-09T22:05:29.620Z,5.77
2024-05-09T22:07:57.142Z,6.70
2024-05-09T22:10:30.800Z,5.20
2024-05-09T22:13:01.781Z,6.10
2024-05-09T22:15:28.915Z,6.40
2024-05-09T22:17:57.540Z,6.30
2024-05-09T22:20:34.252Z,5.87
2024-05-09T22:23:05.189Z,6.10
2024-05-09T22:25:32.878Z,6.50
2024-05-09T22:28:01.721Z,5.37
2024-05-09T22:30:35.849Z,5.13
2024-05-09T22:33:10.995Z,5.30
2024-05-09T22:35:40.099Z,6.30
2024-05-09T22:38:07.183Z,6.77
2024-05-09T22:40:44.883Z,6.07
2024-05-09T22:43:23.958Z,6.37
2024-05-09T22:45:53.209Z,6.87
2024-05-09T22:48:20.685Z,7.13
2024-05-09T22:50:47.755Z,5.77
2024-05-09T22:53:14.843Z,7.07
2024-05-09T22:55:42.000Z,6.20
2024-05-09T22:58:09.019Z,6.00
2024-05-09T23:00:36.112Z,6.47
2024-05-09T23:03:03.633Z,6.00
2024-05-09T23:05:32.486Z,7.17
2024-05-09T23:08:01.323Z,6.10
2024-05-09T23:10:35.462Z,6.70
2024-05-09T23:13:05.257Z,7.27
2024-05-09T23:15:32.429Z,6.57
2024-05-09T23:17:59.606Z,7.37
2024-05-09T23:20:35.534Z,6.97
2024-05-09T23:23:06.426Z,7.07
2024-05-09T23:25:33.497Z,6.37
2024-05-09T23:28:00.576Z,7.50
2024-05-09T23:30:36.055Z,6.97
2024-05-09T23:33:06.562Z,7.30
2024-05-09T23:35:33.574Z,6.53
2024-05-09T23:38:00.527Z,7.20
2024-05-09T23:40:37.412Z,7.30
2024-05-09T23:43:07.874Z,7.20
2024-05-09T23:45:35.240Z,7.10
2024-05-09T23:48:02.890Z,6.90
2024-05-09T23:50:35.701Z,7.00
2024-05-09T23:53:06.546Z,6.33
2024-05-09T23:55:34.927Z,6.93
2024-05-09T23:58:02.039Z,6.70
